National Weather Service Raw Text Product

Displaying AFOS PIL: TAFOTM Received: 2018-07-12 17:21 UTC


201 
FTUS43 KDMX 121721
TAFOTM
TAF
KOTM 121721Z 1218/1318 18007KT P6SM FEW250
     FM131300 18007KT P6SM SCT070=